createdAt,value
2023-02-27T00:02:08.160Z,55.36
2023-02-27T00:04:34.546Z,55.15
2023-02-27T00:07:00.945Z,55.26
2023-02-27T00:09:27.300Z,55.19
2023-02-27T00:11:53.638Z,55.25
2023-02-27T00:14:20.003Z,55.23
2023-02-27T00:16:46.346Z,55.49
2023-02-27T00:19:12.729Z,55.40
2023-02-27T00:21:39.080Z,55.67
2023-02-27T00:24:05.466Z,56.17
2023-02-27T00:26:31.852Z,55.99
2023-02-27T00:28:58.246Z,56.28
2023-02-27T00:31:24.936Z,56.21
2023-02-27T00:33:51.567Z,55.96
2023-02-27T00:36:17.903Z,55.89
2023-02-27T00:38:44.245Z,55.71
2023-02-27T00:41:10.574Z,55.99
2023-02-27T00:43:36.931Z,56.00
2023-02-27T00:46:03.352Z,56.22
2023-02-27T00:48:29.727Z,55.98
2023-02-27T00:50:56.082Z,56.35
2023-02-27T00:53:22.431Z,55.94
2023-02-27T00:55:48.812Z,56.38
2023-02-27T00:58:15.202Z,56.31
2023-02-27T01:00:41.615Z,55.50
2023-02-27T01:03:08.011Z,55.89
2023-02-27T01:05:34.398Z,57.02
2023-02-27T01:08:00.801Z,56.42
2023-02-27T01:10:27.195Z,56.18
2023-02-27T01:12:53.552Z,56.77
2023-02-27T01:15:19.941Z,57.01
2023-02-27T01:17:46.330Z,57.08
2023-02-27T01:20:12.685Z,57.13
2023-02-27T01:22:39.020Z,57.13
2023-02-27T01:25:05.406Z,57.21
2023-02-27T01:27:31.761Z,56.93
2023-02-27T01:29:58.161Z,57.13
2023-02-27T01:32:24.618Z,56.82
2023-02-27T01:34:51.039Z,56.76
2023-02-27T01:37:17.634Z,56.54
2023-02-27T01:39:44.098Z,56.51
2023-02-27T01:42:12.928Z,55.79
2023-02-27T01:44:39.513Z,56.03
2023-02-27T01:47:05.908Z,56.14
2023-02-27T01:49:32.272Z,55.95
2023-02-27T01:51:58.647Z,55.30
2023-02-27T01:54:24.994Z,55.47
2023-02-27T01:56:51.344Z,55.76
2023-02-27T01:59:17.724Z,55.68
2023-02-27T02:01:44.138Z,55.83
2023-02-27T02:04:10.511Z,55.42
2023-02-27T02:06:36.919Z,55.17
2023-02-27T02:09:03.320Z,55.48
2023-02-27T02:11:29.679Z,56.32
2023-02-27T02:13:56.063Z,55.75
2023-02-27T02:16:22.511Z,56.01
2023-02-27T02:18:48.906Z,55.78
2023-02-27T02:21:15.309Z,55.94
2023-02-27T02:23:41.654Z,55.54
2023-02-27T02:26:08.021Z,55.54
2023-02-27T02:28:34.365Z,54.90
2023-02-27T02:31:00.818Z,55.11
2023-02-27T02:33:27.220Z,54.68
2023-02-27T02:35:53.618Z,55.70
2023-02-27T02:38:19.980Z,54.84
2023-02-27T02:40:46.355Z,55.08
2023-02-27T02:43:12.728Z,54.86
2023-02-27T02:45:39.093Z,54.40
2023-02-27T02:48:05.479Z,54.85
2023-02-27T02:50:31.844Z,55.32
2023-02-27T02:52:59.246Z,55.68
2023-02-27T02:55:25.785Z,55.42
2023-02-27T02:57:52.203Z,55.56
2023-02-27T03:00:18.594Z,55.44
2023-02-27T03:02:44.970Z,55.82
2023-02-27T03:05:11.338Z,55.80
2023-02-27T03:07:37.731Z,55.22
2023-02-27T03:10:04.142Z,55.45
2023-02-27T03:12:30.529Z,54.63
2023-02-27T03:14:56.888Z,55.53
2023-02-27T03:17:23.221Z,54.98
2023-02-27T03:19:49.568Z,56.23
2023-02-27T03:22:15.919Z,56.35
2023-02-27T03:24:42.320Z,56.16
2023-02-27T03:27:08.704Z,56.15
2023-02-27T03:29:35.086Z,56.31
2023-02-27T03:32:01.558Z,56.12
2023-02-27T03:34:27.935Z,56.57
2023-02-27T03:36:54.319Z,56.65
2023-02-27T03:39:20.681Z,56.87
2023-02-27T03:41:47.056Z,56.24
2023-02-27T03:44:13.449Z,55.57
2023-02-27T03:46:39.852Z,56.30
2023-02-27T03:49:06.242Z,55.76
2023-02-27T03:51:32.637Z,55.96
2023-02-27T03:53:58.980Z,55.49
2023-02-27T03:56:25.382Z,55.78
2023-02-27T03:58:51.758Z,55.80
2023-02-27T04:01:18.159Z,56.12
2023-02-27T04:03:44.519Z,55.83
2023-02-27T04:06:10.871Z,56.42
2023-02-27T04:08:37.222Z,56.27
2023-02-27T04:11:03.603Z,56.35
2023-02-27T04:13:29.998Z,56.22
2023-02-27T04:15:56.357Z,55.95
2023-02-27T04:18:22.731Z,55.85
2023-02-27T04:20:49.083Z,56.08
2023-02-27T04:23:15.464Z,56.48
2023-02-27T04:25:41.835Z,57.08
2023-02-27T04:28:08.205Z,56.96
2023-02-27T04:30:34.551Z,57.37
2023-02-27T04:33:00.930Z,57.46
2023-02-27T04:35:27.337Z,57.57
2023-02-27T04:37:53.693Z,57.24
2023-02-27T04:40:20.073Z,57.58
2023-02-27T04:42:46.427Z,57.63
2023-02-27T04:45:15.129Z,57.74
2023-02-27T04:47:41.656Z,57.07
2023-02-27T04:50:08.000Z,57.05
2023-02-27T04:52:34.372Z,56.86
2023-02-27T04:55:00.709Z,57.11
2023-02-27T04:57:27.106Z,56.89
2023-02-27T04:59:53.489Z,56.88
2023-02-27T05:02:20.014Z,56.51
2023-02-27T05:04:46.431Z,56.42
2023-02-27T05:07:12.818Z,56.91
2023-02-27T05:09:39.177Z,57.26
2023-02-27T05:12:05.539Z,56.86
2023-02-27T05:14:31.885Z,57.09
2023-02-27T05:16:58.283Z,57.81
2023-02-27T05:19:24.649Z,58.08
2023-02-27T05:21:51.012Z,57.71
2023-02-27T05:24:17.403Z,57.86
2023-02-27T05:26:43.752Z,57.62
2023-02-27T05:29:10.087Z,57.48
2023-02-27T05:31:36.501Z,57.65
2023-02-27T05:34:02.912Z,57.17
2023-02-27T05:36:29.290Z,57.13
2023-02-27T05:38:55.642Z,56.69
2023-02-27T05:41:22.015Z,57.10
2023-02-27T05:43:48.369Z,56.74
2023-02-27T05:46:14.820Z,56.32
2023-02-27T05:48:41.184Z,57.09
2023-02-27T05:51:07.526Z,57.43
2023-02-27T05:53:33.864Z,56.85
2023-02-27T05:56:00.206Z,57.45
2023-02-27T05:58:26.550Z,57.67
2023-02-27T06:00:52.929Z,57.75
2023-02-27T06:03:19.319Z,57.30
2023-02-27T06:05:45.870Z,57.62
2023-02-27T06:08:12.271Z,57.53
2023-02-27T06:10:38.639Z,57.09
2023-02-27T06:13:05.019Z,57.18
2023-02-27T06:15:31.406Z,57.43
2023-02-27T06:17:57.786Z,57.19
2023-02-27T06:20:24.178Z,57.26
2023-02-27T06:22:50.572Z,57.15
2023-02-27T06:25:17.000Z,57.09
2023-02-27T06:27:43.392Z,56.81
2023-02-27T06:30:09.763Z,56.89
2023-02-27T06:32:36.100Z,57.34
2023-02-27T06:35:02.520Z,56.68
2023-02-27T06:37:28.867Z,56.73
2023-02-27T06:39:55.252Z,56.85
2023-02-27T06:42:21.599Z,57.24
2023-02-27T06:44:47.981Z,56.68
2023-02-27T06:47:14.332Z,55.90
2023-02-27T06:49:40.709Z,55.80
2023-02-27T06:52:07.054Z,55.95
2023-02-27T06:54:33.447Z,55.57
2023-02-27T06:56:59.796Z,56.75
2023-02-27T06:59:26.167Z,56.60
2023-02-27T07:01:52.566Z,56.45
2023-02-27T07:04:18.973Z,55.78
2023-02-27T07:07:32.955Z,56.35
2023-02-27T07:09:31.659Z,56.43
2023-02-27T07:11:57.999Z,56.50
2023-02-27T07:14:24.387Z,55.33
2023-02-27T07:16:50.762Z,55.47
2023-02-27T07:19:17.097Z,55.95
2023-02-27T07:21:43.442Z,55.50
2023-02-27T07:24:09.838Z,55.07
2023-02-27T07:26:36.230Z,55.24
2023-02-27T07:29:02.589Z,55.22
2023-02-27T07:31:29.128Z,54.84
2023-02-27T07:33:55.586Z,54.92
2023-02-27T07:36:21.940Z,54.38
2023-02-27T07:38:48.345Z,55.46
2023-02-27T07:41:29.655Z,55.57
2023-02-27T07:43:56.877Z,55.50
2023-02-27T07:46:23.315Z,55.11
2023-02-27T07:48:49.702Z,55.47
2023-02-27T07:51:16.059Z,55.68
2023-02-27T07:53:42.453Z,55.02
2023-02-27T07:56:08.814Z,55.10
2023-02-27T07:58:35.207Z,54.78
2023-02-27T08:01:01.584Z,54.92
2023-02-27T08:03:27.966Z,54.42
2023-02-27T08:05:54.384Z,54.26
2023-02-27T08:08:20.759Z,54.74
2023-02-27T08:10:47.147Z,54.09
2023-02-27T08:13:13.538Z,54.04
2023-02-27T08:15:39.921Z,53.57
2023-02-27T08:18:06.353Z,53.73
2023-02-27T08:20:32.708Z,54.26
2023-02-27T08:22:59.089Z,54.21
2023-02-27T08:25:25.467Z,54.32
2023-02-27T08:27:51.863Z,54.22
2023-02-27T08:30:18.252Z,54.25
2023-02-27T08:32:44.792Z,54.79
2023-02-27T08:35:11.186Z,53.27
2023-02-27T08:37:37.580Z,53.91
2023-02-27T08:40:03.931Z,53.43
2023-02-27T08:42:30.306Z,53.75
2023-02-27T08:44:56.669Z,53.75
2023-02-27T08:47:23.094Z,52.94
2023-02-27T08:49:49.514Z,53.89
2023-02-27T08:52:15.854Z,53.33
2023-02-27T08:54:42.188Z,53.50
2023-02-27T08:57:08.609Z,53.25
2023-02-27T08:59:35.010Z,53.17
2023-02-27T09:02:01.356Z,53.49
2023-02-27T09:04:27.704Z,53.71
2023-02-27T09:06:54.094Z,53.87
2023-02-27T09:09:20.530Z,53.33
2023-02-27T09:11:46.928Z,53.42
2023-02-27T09:14:13.349Z,53.26
2023-02-27T09:16:39.851Z,52.75
2023-02-27T09:19:06.231Z,52.85
2023-02-27T09:21:32.625Z,53.13
2023-02-27T09:24:02.641Z,53.43
2023-02-27T09:26:44.982Z,52.79
2023-02-27T09:29:12.389Z,52.27
2023-02-27T09:31:38.836Z,52.16
2023-02-27T09:34:05.237Z,52.44
2023-02-27T09:36:31.611Z,52.12
2023-02-27T09:38:58.021Z,52.30
2023-02-27T09:41:24.541Z,51.85
2023-02-27T09:43:50.950Z,51.61
2023-02-27T09:46:17.415Z,52.23
2023-02-27T09:48:43.796Z,52.05
2023-02-27T09:51:10.149Z,51.50
2023-02-27T09:53:36.499Z,51.33
2023-02-27T09:56:03.973Z,51.89
2023-02-27T09:58:30.368Z,51.44
2023-02-27T10:00:56.722Z,50.99
2023-02-27T10:03:23.171Z,51.73
2023-02-27T10:05:49.563Z,51.28
2023-02-27T10:08:15.960Z,51.29
2023-02-27T10:10:42.345Z,50.14
2023-02-27T10:13:08.706Z,50.69
2023-02-27T10:15:35.113Z,50.70
2023-02-27T10:18:07.547Z,50.33
2023-02-27T10:20:43.017Z,49.86
2023-02-27T10:23:09.374Z,49.92
2023-02-27T10:25:35.716Z,50.61
2023-02-27T10:28:02.084Z,51.49
2023-02-27T10:30:30.905Z,50.68
2023-02-27T10:32:58.260Z,50.43
2023-02-27T10:35:24.657Z,49.98
2023-02-27T10:37:51.018Z,50.28
2023-02-27T10:40:17.400Z,50.37
2023-02-27T10:42:43.784Z,50.26
2023-02-27T10:45:10.172Z,50.32
2023-02-27T10:47:36.518Z,48.56
2023-02-27T10:50:02.906Z,49.60
2023-02-27T10:52:29.244Z,49.76
2023-02-27T10:54:55.633Z,49.08
2023-02-27T10:57:22.015Z,49.19
2023-02-27T10:59:48.378Z,49.99
2023-02-27T11:02:14.763Z,48.86
2023-02-27T11:04:41.158Z,48.58
2023-02-27T11:07:07.578Z,48.59
2023-02-27T11:09:33.953Z,48.21
2023-02-27T11:12:00.314Z,47.89
2023-02-27T11:14:26.889Z,47.94
2023-02-27T11:16:53.283Z,48.35
2023-02-27T11:19:19.666Z,48.65
2023-02-27T11:21:46.070Z,48.60
2023-02-27T11:24:12.428Z,48.67
2023-02-27T11:26:38.892Z,48.23
2023-02-27T11:29:05.286Z,47.00
2023-02-27T11:31:31.775Z,47.64
2023-02-27T11:33:58.197Z,48.00
2023-02-27T11:36:24.630Z,47.67
2023-02-27T11:38:50.995Z,47.65
2023-02-27T11:41:17.345Z,48.12
2023-02-27T11:43:43.723Z,47.69
2023-02-27T11:46:44.160Z,48.48
2023-02-27T11:48:56.510Z,47.90
2023-02-27T11:51:22.926Z,47.63
2023-02-27T11:53:49.318Z,47.60
2023-02-27T11:56:15.698Z,47.51
2023-02-27T11:58:42.096Z,47.33
2023-02-27T12:01:08.438Z,47.86
2023-02-27T12:03:34.862Z,47.08
2023-02-27T12:06:01.262Z,47.91
2023-02-27T12:08:27.622Z,48.37
2023-02-27T12:10:57.238Z,47.80
2023-02-27T12:13:25.700Z,47.82
2023-02-27T12:15:52.106Z,47.93
2023-02-27T12:18:18.526Z,47.85
2023-02-27T12:20:44.919Z,49.16
2023-02-27T12:23:11.258Z,47.85
2023-02-27T12:25:37.640Z,48.79
2023-02-27T12:28:03.994Z,48.12
2023-02-27T12:30:30.360Z,47.80
2023-02-27T12:32:56.736Z,48.08
2023-02-27T12:35:23.096Z,48.22
2023-02-27T12:37:49.464Z,48.93
2023-02-27T12:40:15.825Z,49.39
2023-02-27T12:42:42.202Z,49.61
2023-02-27T12:45:08.571Z,49.20
2023-02-27T12:47:35.000Z,48.71
2023-02-27T12:50:01.404Z,49.13
2023-02-27T12:52:28.020Z,49.98
2023-02-27T12:54:54.413Z,49.38
2023-02-27T12:57:20.797Z,49.39
2023-02-27T12:59:47.244Z,48.74
2023-02-27T13:02:13.612Z,48.77
2023-02-27T13:04:39.999Z,49.37
2023-02-27T13:07:06.387Z,49.03
2023-02-27T13:09:32.768Z,48.58
2023-02-27T13:11:59.116Z,49.24
2023-02-27T13:14:25.488Z,49.52
2023-02-27T13:16:51.926Z,49.79
2023-02-27T13:19:18.306Z,49.22
2023-02-27T13:21:44.643Z,49.08
2023-02-27T13:24:10.975Z,48.84
2023-02-27T13:26:37.382Z,49.49
2023-02-27T13:29:03.736Z,48.40
2023-02-27T13:31:30.459Z,47.84
2023-02-27T13:33:57.074Z,48.26
2023-02-27T13:36:24.585Z,49.27
2023-02-27T13:38:51.066Z,48.86
2023-02-27T13:41:17.440Z,49.57
2023-02-27T13:43:52.104Z,48.72
2023-02-27T13:46:19.116Z,49.24
2023-02-27T13:48:45.538Z,49.15
2023-02-27T13:51:11.971Z,48.42
2023-02-27T13:53:38.383Z,47.47
2023-02-27T13:56:04.731Z,48.34
2023-02-27T13:58:31.120Z,48.17
2023-02-27T14:00:57.490Z,49.12
2023-02-27T14:03:23.887Z,48.88
2023-02-27T14:05:50.274Z,48.73
2023-02-27T14:08:16.689Z,48.46
2023-02-27T14:10:43.104Z,48.73
2023-02-27T14:13:09.459Z,48.80
2023-02-27T14:15:35.946Z,48.98
2023-02-27T14:18:14.215Z,49.30
2023-02-27T14:20:46.587Z,49.32
2023-02-27T14:23:12.976Z,49.23
2023-02-27T14:25:39.337Z,50.07
2023-02-27T14:28:05.713Z,48.95
2023-02-27T14:30:32.110Z,49.95
2023-02-27T14:32:58.451Z,49.87
2023-02-27T14:35:24.853Z,50.51
2023-02-27T14:37:51.200Z,50.48
2023-02-27T14:40:28.071Z,50.71
2023-02-27T14:42:55.977Z,50.67
2023-02-27T14:45:24.306Z,51.16
2023-02-27T14:47:50.957Z,50.58
2023-02-27T14:50:17.349Z,50.65
2023-02-27T14:52:43.722Z,51.14
2023-02-27T14:55:10.072Z,51.38
2023-02-27T14:57:36.485Z,50.84
2023-02-27T15:00:02.915Z,50.71
2023-02-27T15:02:29.309Z,51.81
2023-02-27T15:04:55.781Z,51.47
2023-02-27T15:07:22.202Z,51.39
2023-02-27T15:09:48.602Z,50.86
2023-02-27T15:12:15.001Z,51.98
2023-02-27T15:14:41.389Z,51.73
2023-02-27T15:17:07.814Z,51.01
2023-02-27T15:19:34.173Z,51.44
2023-02-27T15:22:00.583Z,51.50
2023-02-27T15:24:26.943Z,51.87
2023-02-27T15:26:53.544Z,52.03
2023-02-27T15:29:19.879Z,51.37
2023-02-27T15:31:46.341Z,52.52
2023-02-27T15:34:12.792Z,52.07
2023-02-27T15:36:39.155Z,51.53
2023-02-27T15:39:05.534Z,51.82
2023-02-27T15:41:31.980Z,51.89
2023-02-27T15:43:58.380Z,52.25
2023-02-27T15:46:24.805Z,51.94
2023-02-27T15:48:51.181Z,53.25
2023-02-27T15:51:17.521Z,53.54
2023-02-27T15:53:43.907Z,52.99
2023-02-27T15:56:10.248Z,52.33
2023-02-27T15:58:36.648Z,52.65
2023-02-27T16:01:03.037Z,53.27
2023-02-27T16:03:29.396Z,54.13
2023-02-27T16:05:55.769Z,53.85
2023-02-27T16:08:22.173Z,53.72
2023-02-27T16:10:48.550Z,53.19
2023-02-27T16:13:14.900Z,54.55
2023-02-27T16:15:41.255Z,54.45
2023-02-27T16:18:07.642Z,55.02
2023-02-27T16:20:34.071Z,54.76
2023-02-27T16:23:00.426Z,54.34
2023-02-27T16:25:26.777Z,55.12
2023-02-27T16:27:53.172Z,55.55
2023-02-27T16:30:19.528Z,55.20
2023-02-27T16:32:45.964Z,55.20
2023-02-27T16:35:12.420Z,54.93
2023-02-27T16:37:38.787Z,55.10
2023-02-27T16:40:05.156Z,55.74
2023-02-27T16:42:31.563Z,55.80
2023-02-27T16:44:57.973Z,55.96
2023-02-27T16:47:24.325Z,56.54
2023-02-27T16:49:50.675Z,56.20
2023-02-27T16:52:17.093Z,56.08
2023-02-27T16:54:43.503Z,56.33
2023-02-27T16:57:09.883Z,55.64
2023-02-27T16:59:36.294Z,56.18
2023-02-27T17:02:02.745Z,56.56
2023-02-27T17:04:29.176Z,57.25
2023-02-27T17:06:55.602Z,56.98
2023-02-27T17:09:21.976Z,57.13
2023-02-27T17:11:48.315Z,57.13
2023-02-27T17:14:14.722Z,57.58
2023-02-27T17:16:41.116Z,57.66
2023-02-27T17:19:07.539Z,58.17
2023-02-27T17:21:33.938Z,58.08
2023-02-27T17:24:00.295Z,58.37
2023-02-27T17:26:26.830Z,57.72
2023-02-27T17:28:53.380Z,58.35
2023-02-27T17:31:19.767Z,57.70
2023-02-27T17:33:46.171Z,57.52
2023-02-27T17:36:12.607Z,57.96
2023-02-27T17:38:38.964Z,58.40
2023-02-27T17:41:05.307Z,58.25
2023-02-27T17:43:31.690Z,58.50
2023-02-27T17:45:58.114Z,58.37
2023-02-27T17:48:24.507Z,58.30
2023-02-27T17:50:50.875Z,58.18
2023-02-27T17:53:17.234Z,58.68
2023-02-27T17:55:43.601Z,58.95
2023-02-27T17:58:09.986Z,59.45
2023-02-27T18:00:36.402Z,60.34
2023-02-27T18:03:02.829Z,59.96
2023-02-27T18:05:29.194Z,59.50
2023-02-27T18:07:55.645Z,59.87
2023-02-27T18:10:22.055Z,59.67
2023-02-27T18:12:48.419Z,59.92
2023-02-27T18:15:14.813Z,59.39
2023-02-27T18:17:41.218Z,60.55
2023-02-27T18:20:07.582Z,60.11
2023-02-27T18:22:33.958Z,60.81
2023-02-27T18:25:00.324Z,60.44
2023-02-27T18:27:26.736Z,60.19
2023-02-27T18:29:53.139Z,60.03
2023-02-27T18:32:19.573Z,60.12
2023-02-27T18:34:45.937Z,59.75
2023-02-27T18:37:12.275Z,61.22
2023-02-27T18:39:38.670Z,60.85
2023-02-27T18:42:06.722Z,60.82
2023-02-27T18:44:33.244Z,61.09
2023-02-27T18:46:59.669Z,60.82
2023-02-27T18:49:26.082Z,61.28
2023-02-27T18:51:52.472Z,61.16
2023-02-27T18:54:18.874Z,61.17
2023-02-27T18:56:45.239Z,60.95
2023-02-27T18:59:11.630Z,60.90
2023-02-27T19:01:37.986Z,61.81
2023-02-27T19:04:04.439Z,61.12
2023-02-27T19:06:31.060Z,60.42
2023-02-27T19:08:57.562Z,60.64
2023-02-27T19:11:23.945Z,61.68
2023-02-27T19:13:50.290Z,61.13
2023-02-27T19:16:16.721Z,61.32
2023-02-27T19:18:43.173Z,61.50
2023-02-27T19:21:09.538Z,61.50
2023-02-27T19:23:36.044Z,61.90
2023-02-27T19:26:02.476Z,61.51
2023-02-27T19:28:28.862Z,61.93
2023-02-27T19:30:55.247Z,61.18
2023-02-27T19:33:21.645Z,61.23
2023-02-27T19:35:48.061Z,61.58
2023-02-27T19:38:14.460Z,62.20
2023-02-27T19:40:40.805Z,62.03
2023-02-27T19:43:07.166Z,61.24
2023-02-27T19:45:33.524Z,61.53
2023-02-27T19:47:59.875Z,61.47
2023-02-27T19:50:26.314Z,61.90
2023-02-27T19:52:52.745Z,62.03
2023-02-27T19:55:19.106Z,62.59
2023-02-27T19:57:45.501Z,62.08
2023-02-27T20:00:11.856Z,62.33
2023-02-27T20:02:38.245Z,62.13
2023-02-27T20:05:04.644Z,61.80
2023-02-27T20:07:31.014Z,61.00
2023-02-27T20:09:57.421Z,61.09
2023-02-27T20:12:23.801Z,61.46
2023-02-27T20:14:50.186Z,61.11
2023-02-27T20:17:16.595Z,60.94
2023-02-27T20:19:42.938Z,60.98
2023-02-27T20:22:09.300Z,61.53
2023-02-27T20:24:35.683Z,61.73
2023-02-27T20:27:02.100Z,61.85
2023-02-27T20:29:28.538Z,61.91
2023-02-27T20:31:55.021Z,61.24
2023-02-27T20:34:21.426Z,60.69
2023-02-27T20:36:47.824Z,60.91
2023-02-27T20:39:14.231Z,61.29
2023-02-27T20:41:40.602Z,60.77
2023-02-27T20:44:06.968Z,61.15
2023-02-27T20:46:33.404Z,60.10
2023-02-27T20:48:59.795Z,60.25
2023-02-27T20:51:26.404Z,59.57
2023-02-27T20:53:53.213Z,59.86
2023-02-27T20:56:19.567Z,59.98
2023-02-27T20:58:45.956Z,59.11
2023-02-27T21:01:12.395Z,58.98
2023-02-27T21:03:39.151Z,60.63
2023-02-27T21:06:05.608Z,59.17
2023-02-27T21:08:31.998Z,58.94
2023-02-27T21:10:58.418Z,59.55
2023-02-27T21:13:25.104Z,60.01
2023-02-27T21:15:51.485Z,60.13
2023-02-27T21:18:17.913Z,59.01
2023-02-27T21:20:44.321Z,58.82
2023-02-27T21:23:10.677Z,58.94
2023-02-27T21:25:37.066Z,58.42
2023-02-27T21:28:03.481Z,58.88
2023-02-27T21:30:29.892Z,58.94
2023-02-27T21:32:56.962Z,58.11
2023-02-27T21:35:23.623Z,58.00
2023-02-27T21:37:50.225Z,58.59
2023-02-27T21:40:16.573Z,59.58
2023-02-27T21:42:42.958Z,58.39
2023-02-27T21:45:09.363Z,58.27
2023-02-27T21:47:35.727Z,58.05
2023-02-27T21:50:02.249Z,58.15
2023-02-27T21:52:28.637Z,59.18
2023-02-27T21:54:55.129Z,58.42
2023-02-27T21:57:21.492Z,58.84
2023-02-27T21:59:47.887Z,59.27
2023-02-27T22:02:14.235Z,59.18
2023-02-27T22:04:40.632Z,59.43
2023-02-27T22:07:07.041Z,59.30
2023-02-27T22:09:33.388Z,59.45
2023-02-27T22:11:59.737Z,58.65
2023-02-27T22:14:26.144Z,58.81
2023-02-27T22:16:52.514Z,59.23
2023-02-27T22:19:18.900Z,58.46
2023-02-27T22:21:45.250Z,58.03
2023-02-27T22:24:11.635Z,59.33
2023-02-27T22:26:38.027Z,59.64
2023-02-27T22:29:04.401Z,59.60
2023-02-27T22:31:31.393Z,60.25
2023-02-27T22:33:58.060Z,59.06
2023-02-27T22:36:24.402Z,59.31
2023-02-27T22:38:50.797Z,59.22
2023-02-27T22:41:17.156Z,59.68
2023-02-27T22:43:43.499Z,59.95
2023-02-27T22:46:09.929Z,60.09
2023-02-27T22:48:36.314Z,60.38
2023-02-27T22:51:02.659Z,59.97
2023-02-27T22:53:29.000Z,59.67
2023-02-27T22:55:55.353Z,59.46
2023-02-27T22:58:21.744Z,59.00
2023-02-27T23:00:48.149Z,60.12
2023-02-27T23:03:14.567Z,60.29
2023-02-27T23:05:40.910Z,60.71
2023-02-27T23:08:07.293Z,60.78
2023-02-27T23:10:33.691Z,60.38
2023-02-27T23:13:00.057Z,60.70
2023-02-27T23:15:26.463Z,60.39
2023-02-27T23:17:58.285Z,60.01
2023-02-27T23:20:25.077Z,59.89
2023-02-27T23:22:51.468Z,60.74
2023-02-27T23:25:17.863Z,60.27
2023-02-27T23:27:44.231Z,60.71
2023-02-27T23:30:10.630Z,61.36
2023-02-27T23:32:37.068Z,61.20
2023-02-27T23:35:03.494Z,61.09
2023-02-27T23:37:29.901Z,61.44
2023-02-27T23:39:56.256Z,61.26
2023-02-27T23:42:22.624Z,60.95
2023-02-27T23:44:49.010Z,61.12
2023-02-27T23:47:15.410Z,60.73
2023-02-27T23:49:41.806Z,61.02
2023-02-27T23:52:08.178Z,61.03
2023-02-27T23:54:34.538Z,60.88
2023-02-27T23:57:00.897Z,60.75
2023-02-27T23:59:27.286Z,60.97
